If you wish to contribute or participate in the discussions about articles you are invited to join SKYbrary as a registered user

Pond Inlet Airport

From SKYbrary Wiki
CYIO
Airport
ICAO: CYIO
Summary
Name Pond Inlet Airport
Region North America
Territory Canada CA.gif
Location Pond Inlet, Nunavut
Serving
Coordinates 72° 42' 0.4208", -77° 57' 30.7138"
Close to Northwestern Passages
Runways
Designator Length Width Surface ROPS
02T/20T 1219 m3,999.344 ft 30 m98.425 ft GVL /
METAR
Observation CYIO 180400Z AUTO 21006KT 9SM BKN060 OVC074 M20/M23 A3045 RMK SLP322
Station Pond Inlet, N. W. T.
Date/Time 18 November 2017 04:00:00
Wind direction 210°
Wind speed 06 kts
Lowest cloud amount broken clouds
Temperature
Dew point
Humidity 76%
QNH hPa
Weather condition n/a

BS
Tag(s) Non Avian Wildlife Hazards to Aircraft
CFIT
Tag(s) Altimeter Temperature Error Correction
GND
Tag(s) Aircraft Ground De/Anti Icing
WX
Tag(s) Fog

Pond Inlet Airport

ICAO: CYIO IATA: YIO

Description

Airport serving Pond Inlet, Nunavut, Canada, operated by the government of Nunavut

Climatology

Tundra climate (Köppen climate classification ET) - warmest month has an average temperature of 0 - 10 degrees C.

Maps

Terrain

Loading map...

Airport Layout

Loading map...


Accidents & Serious Incidents at or in vicinity of CYIO

None on SKYbrary